createdAt,value
2022-11-21T00:01:34.642Z,54.79
2022-11-21T00:03:35.992Z,54.85
2022-11-21T00:05:37.340Z,55.35
2022-11-21T00:07:38.861Z,55.22
2022-11-21T00:09:40.225Z,55.16
2022-11-21T00:11:41.552Z,55.52
2022-11-21T00:13:42.880Z,55.92
2022-11-21T00:15:44.176Z,55.97
2022-11-21T00:17:45.508Z,56.02
2022-11-21T00:19:46.809Z,56.64
2022-11-21T00:21:48.092Z,56.93
2022-11-21T00:23:49.502Z,56.85
2022-11-21T00:25:50.784Z,56.53
2022-11-21T00:27:52.098Z,56.69
2022-11-21T00:29:53.399Z,56.87
2022-11-21T00:31:55.122Z,56.92
2022-11-21T00:33:56.452Z,56.98
2022-11-21T00:35:57.736Z,57.16
2022-11-21T00:37:59.008Z,57.35
2022-11-21T00:40:00.380Z,57.69
2022-11-21T00:42:01.717Z,57.83
2022-11-21T00:44:02.993Z,57.77
2022-11-21T00:46:04.518Z,58.08
2022-11-21T00:48:05.793Z,58.18
2022-11-21T00:50:07.075Z,58.18
2022-11-21T00:52:08.413Z,58.35
2022-11-21T00:54:09.690Z,58.48
2022-11-21T00:56:11.165Z,58.69
2022-11-21T00:58:12.452Z,58.48
2022-11-21T01:00:13.724Z,58.61
2022-11-21T01:02:15.036Z,58.54
2022-11-21T01:04:16.345Z,58.57
2022-11-21T01:06:17.740Z,58.30
2022-11-21T01:08:19.020Z,57.62
2022-11-21T01:10:20.337Z,57.40
2022-11-21T01:12:21.632Z,56.68
2022-11-21T01:14:22.896Z,56.78
2022-11-21T01:16:24.418Z,56.35
2022-11-21T01:18:25.740Z,56.12
2022-11-21T01:20:27.013Z,55.65
2022-11-21T01:22:29.270Z,55.23
2022-11-21T01:24:30.574Z,55.19
2022-11-21T01:26:33.000Z,55.18
2022-11-21T01:28:34.308Z,55.39
2022-11-21T01:30:35.616Z,55.31
2022-11-21T01:32:36.889Z,55.49
2022-11-21T01:34:38.184Z,55.75
2022-11-21T01:36:39.509Z,55.57
2022-11-21T01:38:40.843Z,55.93
2022-11-21T01:40:42.124Z,56.43
2022-11-21T01:42:43.416Z,56.51
2022-11-21T01:44:44.739Z,56.28
2022-11-21T01:46:46.097Z,56.53
2022-11-21T01:48:47.427Z,57.00
2022-11-21T01:50:48.905Z,57.67
2022-11-21T01:52:50.189Z,57.11
2022-11-21T01:54:51.536Z,57.79
2022-11-21T01:56:53.003Z,57.55
2022-11-21T01:58:54.306Z,57.74
2022-11-21T02:00:55.613Z,57.53
2022-11-21T02:02:56.948Z,57.96
2022-11-21T02:04:58.212Z,57.98
2022-11-21T02:06:59.809Z,57.85
2022-11-21T02:09:01.128Z,58.02
2022-11-21T02:11:02.408Z,58.13
2022-11-21T02:13:03.721Z,58.25
2022-11-21T02:15:05.044Z,58.47
2022-11-21T02:17:06.352Z,58.16
2022-11-21T02:19:07.649Z,58.46
2022-11-21T02:21:08.942Z,58.48
2022-11-21T02:23:10.230Z,58.65
2022-11-21T02:25:11.532Z,58.67
2022-11-21T02:27:12.817Z,58.67
2022-11-21T02:29:14.206Z,58.72
2022-11-21T02:31:15.532Z,58.79
2022-11-21T02:33:16.820Z,58.03
2022-11-21T02:35:18.145Z,58.10
2022-11-21T02:37:19.468Z,57.63
2022-11-21T02:39:20.804Z,57.54
2022-11-21T02:41:26.566Z,57.14
2022-11-21T02:43:28.144Z,56.63
2022-11-21T02:45:29.840Z,56.17
2022-11-21T02:47:31.121Z,56.12
2022-11-21T02:49:32.403Z,55.78
2022-11-21T02:51:33.695Z,55.56
2022-11-21T02:53:35.008Z,55.66
2022-11-21T02:55:36.308Z,55.69
2022-11-21T02:57:37.608Z,55.79
2022-11-21T02:59:38.901Z,55.83
2022-11-21T03:01:40.164Z,55.81
2022-11-21T03:03:41.477Z,55.52
2022-11-21T03:05:42.805Z,56.28
2022-11-21T03:07:44.153Z,56.02
2022-11-21T03:09:45.503Z,56.20
2022-11-21T03:11:46.796Z,56.14
2022-11-21T03:13:48.069Z,56.75
2022-11-21T03:15:49.427Z,56.54
2022-11-21T03:17:50.731Z,56.70
2022-11-21T03:19:52.062Z,57.20
2022-11-21T03:21:54.536Z,57.33
2022-11-21T03:23:55.810Z,57.50
2022-11-21T03:25:57.116Z,57.75
2022-11-21T03:27:58.469Z,57.94
2022-11-21T03:29:59.755Z,57.96
2022-11-21T03:32:03.938Z,57.98
2022-11-21T03:34:05.247Z,58.50
2022-11-21T03:36:06.547Z,58.42
2022-11-21T03:38:07.829Z,58.45
2022-11-21T03:40:09.133Z,58.46
2022-11-21T03:42:10.418Z,58.96
2022-11-21T03:44:11.749Z,58.92
2022-11-21T03:46:13.041Z,59.00
2022-11-21T03:48:14.352Z,58.97
2022-11-21T03:50:18.946Z,59.09
2022-11-21T03:52:20.256Z,59.31
2022-11-21T03:54:21.528Z,59.26
2022-11-21T03:56:22.875Z,59.12
2022-11-21T03:58:24.148Z,59.33
2022-11-21T04:00:25.465Z,59.35
2022-11-21T04:02:26.810Z,58.56
2022-11-21T04:04:28.259Z,58.29
2022-11-21T04:06:31.436Z,57.84
2022-11-21T04:08:32.750Z,57.63
2022-11-21T04:10:34.053Z,57.17
2022-11-21T04:12:35.362Z,57.08
2022-11-21T04:14:36.644Z,56.68
2022-11-21T04:16:37.977Z,56.26
2022-11-21T04:18:39.333Z,56.31
2022-11-21T04:20:40.607Z,56.09
2022-11-21T04:22:41.880Z,56.11
2022-11-21T04:24:43.185Z,55.91
2022-11-21T04:26:44.511Z,55.63
2022-11-21T04:28:45.791Z,56.04
2022-11-21T04:30:47.113Z,55.82
2022-11-21T04:32:49.514Z,56.08
2022-11-21T04:34:50.867Z,56.08
2022-11-21T04:36:52.232Z,55.95
2022-11-21T04:38:53.605Z,56.50
2022-11-21T04:40:54.917Z,56.28
2022-11-21T04:42:56.209Z,56.55
2022-11-21T04:44:57.529Z,56.42
2022-11-21T04:47:05.012Z,56.83
2022-11-21T04:49:06.933Z,57.29
2022-11-21T04:51:08.300Z,57.11
2022-11-21T04:53:09.685Z,57.45
2022-11-21T04:55:10.969Z,57.66
2022-11-21T04:57:12.260Z,58.02
2022-11-21T04:59:13.546Z,58.04
2022-11-21T05:01:14.905Z,58.37
2022-11-21T05:03:16.236Z,58.40
2022-11-21T05:05:17.535Z,58.52
2022-11-21T05:07:18.891Z,58.63
2022-11-21T05:09:20.228Z,58.72
2022-11-21T05:11:40.317Z,58.70
2022-11-21T05:13:41.622Z,59.10
2022-11-21T05:15:42.893Z,59.08
2022-11-21T05:17:44.210Z,59.20
2022-11-21T05:19:45.494Z,59.37
2022-11-21T05:21:46.818Z,59.55
2022-11-21T05:23:48.142Z,59.39
2022-11-21T05:25:49.491Z,59.45
2022-11-21T05:27:50.770Z,59.47
2022-11-21T05:29:52.096Z,59.44
2022-11-21T05:31:53.395Z,59.31
2022-11-21T05:33:54.691Z,59.21
2022-11-21T05:35:56.168Z,58.88
2022-11-21T05:37:57.529Z,58.14
2022-11-21T05:39:58.885Z,57.58
2022-11-21T05:42:03.233Z,57.46
2022-11-21T05:44:04.780Z,57.36
2022-11-21T05:46:06.075Z,57.00
2022-11-21T05:48:08.024Z,56.59
2022-11-21T05:50:09.365Z,56.57
2022-11-21T05:52:10.648Z,56.40
2022-11-21T05:54:11.964Z,56.21
2022-11-21T05:56:13.232Z,56.11
2022-11-21T05:58:14.560Z,56.04
2022-11-21T06:00:15.838Z,56.11
2022-11-21T06:02:36.005Z,55.91
2022-11-21T06:04:37.646Z,56.41
2022-11-21T06:06:39.123Z,56.25
2022-11-21T06:08:40.420Z,56.23
2022-11-21T06:10:41.729Z,56.58
2022-11-21T06:12:43.013Z,56.72
2022-11-21T06:14:44.344Z,56.93
2022-11-21T06:16:45.636Z,56.92
2022-11-21T06:18:46.917Z,57.03
2022-11-21T06:20:48.240Z,57.29
2022-11-21T06:22:49.592Z,57.60
2022-11-21T06:24:50.888Z,57.73
2022-11-21T06:26:52.229Z,57.69
2022-11-21T06:28:53.509Z,57.96
2022-11-21T06:30:54.829Z,58.16
2022-11-21T06:32:56.187Z,58.42
2022-11-21T06:34:57.491Z,58.54
2022-11-21T06:36:58.766Z,58.55
2022-11-21T06:39:00.093Z,58.42
2022-11-21T06:41:01.384Z,58.66
2022-11-21T06:43:02.733Z,58.58
2022-11-21T06:45:04.044Z,58.77
2022-11-21T06:47:05.336Z,58.50
2022-11-21T06:49:07.568Z,58.70
2022-11-21T06:51:09.123Z,58.52
2022-11-21T06:53:10.519Z,58.47
2022-11-21T06:55:12.001Z,58.71
2022-11-21T06:57:13.292Z,58.36
2022-11-21T06:59:15.617Z,58.21
2022-11-21T07:01:16.920Z,58.05
2022-11-21T07:03:18.449Z,57.73
2022-11-21T07:05:19.816Z,57.76
2022-11-21T07:07:21.320Z,57.38
2022-11-21T07:09:38.168Z,56.89
2022-11-21T07:11:39.437Z,56.10
2022-11-21T07:13:40.766Z,56.18
2022-11-21T07:15:42.092Z,55.66
2022-11-21T07:17:43.368Z,55.29
2022-11-21T07:19:44.637Z,55.15
2022-11-21T07:21:45.916Z,54.82
2022-11-21T07:23:47.927Z,54.84
2022-11-21T07:25:49.264Z,54.50
2022-11-21T07:27:50.589Z,54.41
2022-11-21T07:29:51.920Z,54.50
2022-11-21T07:31:53.240Z,54.45
2022-11-21T07:33:54.636Z,54.43
2022-11-21T07:35:56.401Z,54.60
2022-11-21T07:37:57.803Z,54.75
2022-11-21T07:39:59.095Z,54.84
2022-11-21T07:42:00.380Z,54.95
2022-11-21T07:44:01.705Z,55.19
2022-11-21T07:46:03.039Z,55.22
2022-11-21T07:48:04.308Z,55.31
2022-11-21T07:50:05.589Z,55.42
2022-11-21T07:52:06.896Z,55.61
2022-11-21T07:54:08.221Z,55.66
2022-11-21T07:56:09.794Z,55.81
2022-11-21T07:58:11.124Z,55.80
2022-11-21T08:00:12.468Z,56.08
2022-11-21T08:02:13.837Z,56.11
2022-11-21T08:04:15.156Z,56.10
2022-11-21T08:06:16.477Z,56.41
2022-11-21T08:08:17.750Z,56.47
2022-11-21T08:10:19.060Z,56.31
2022-11-21T08:12:20.399Z,56.28
2022-11-21T08:14:21.682Z,56.71
2022-11-21T08:16:24.440Z,56.80
2022-11-21T08:18:26.388Z,56.40
2022-11-21T08:20:27.709Z,56.56
2022-11-21T08:22:28.993Z,56.33
2022-11-21T08:24:30.288Z,56.00
2022-11-21T08:26:31.563Z,49.40
2022-11-21T08:28:32.873Z,47.11
2022-11-21T08:30:34.162Z,49.88
2022-11-21T08:32:35.444Z,47.27
2022-11-21T08:34:36.746Z,51.04
2022-11-21T08:36:38.053Z,48.03
2022-11-21T08:38:39.373Z,47.77
2022-11-21T08:40:40.663Z,47.74
2022-11-21T08:42:41.998Z,47.87
2022-11-21T08:44:43.361Z,49.20
2022-11-21T08:46:44.632Z,49.56
2022-11-21T08:48:45.924Z,49.91
2022-11-21T08:50:47.203Z,50.55
2022-11-21T08:52:48.605Z,50.17
2022-11-21T08:54:49.892Z,50.99
2022-11-21T08:56:51.177Z,50.78
2022-11-21T08:58:52.452Z,50.83
2022-11-21T09:00:53.716Z,50.34
2022-11-21T09:02:55.728Z,50.00
2022-11-21T09:04:57.024Z,50.23
2022-11-21T09:06:58.521Z,50.27
2022-11-21T09:08:59.809Z,50.00
2022-11-21T09:11:01.100Z,49.99
2022-11-21T09:13:02.714Z,50.47
2022-11-21T09:15:22.877Z,50.75
2022-11-21T09:17:42.940Z,51.19
2022-11-21T09:19:44.264Z,51.12
2022-11-21T09:21:45.990Z,51.22
2022-11-21T09:23:47.378Z,51.68
2022-11-21T09:25:48.712Z,51.50
2022-11-21T09:27:49.992Z,51.89
2022-11-21T09:29:54.230Z,52.27
2022-11-21T09:31:55.764Z,51.63
2022-11-21T09:33:57.104Z,51.98
2022-11-21T09:35:58.454Z,52.85
2022-11-21T09:37:59.741Z,52.47
2022-11-21T09:40:01.051Z,52.26
2022-11-21T09:42:02.384Z,52.72
2022-11-21T09:44:03.708Z,52.82
2022-11-21T09:46:04.998Z,52.71
2022-11-21T09:48:06.649Z,52.96
2022-11-21T09:50:08.036Z,52.71
2022-11-21T09:52:09.365Z,52.83
2022-11-21T09:54:10.793Z,53.36
2022-11-21T09:56:12.166Z,54.24
2022-11-21T09:58:13.480Z,54.38
2022-11-21T10:00:14.809Z,53.67
2022-11-21T10:02:16.205Z,54.15
2022-11-21T10:04:17.516Z,54.68
2022-11-21T10:06:18.953Z,54.27
2022-11-21T10:08:20.276Z,54.66
2022-11-21T10:10:21.561Z,54.96
2022-11-21T10:12:37.879Z,54.72
2022-11-21T10:14:39.916Z,54.78
2022-11-21T10:16:42.336Z,54.73
2022-11-21T10:18:43.701Z,54.70
2022-11-21T10:20:45.030Z,54.68
2022-11-21T10:22:49.243Z,54.45
2022-11-21T10:24:50.562Z,54.38
2022-11-21T10:26:51.884Z,54.02
2022-11-21T10:28:53.216Z,53.76
2022-11-21T10:30:54.525Z,53.30
2022-11-21T10:32:55.827Z,53.34
2022-11-21T10:34:57.164Z,52.92
2022-11-21T10:36:58.489Z,52.44
2022-11-21T10:38:59.840Z,52.16
2022-11-21T10:41:01.190Z,51.94
2022-11-21T10:43:22.436Z,52.06
2022-11-21T10:45:23.720Z,51.73
2022-11-21T10:47:28.010Z,51.41
2022-11-21T10:49:29.280Z,51.36
2022-11-21T10:51:30.608Z,51.58
2022-11-21T10:53:50.752Z,51.64
2022-11-21T10:55:52.038Z,51.91
2022-11-21T10:57:55.006Z,51.98
2022-11-21T10:59:56.307Z,51.89
2022-11-21T11:01:57.693Z,52.08
2022-11-21T11:04:20.766Z,52.17
2022-11-21T11:06:20.289Z,52.18
2022-11-21T11:08:21.593Z,52.36
2022-11-21T11:10:27.242Z,52.81
2022-11-21T11:12:48.052Z,52.66
2022-11-21T11:14:49.379Z,53.04
2022-11-21T11:16:50.669Z,53.58
2022-11-21T11:18:52.210Z,53.77
2022-11-21T11:20:53.637Z,53.99
2022-11-21T11:22:54.989Z,54.17
2022-11-21T11:25:00.427Z,54.77
2022-11-21T11:27:02.767Z,54.99
2022-11-21T11:29:04.135Z,55.35
2022-11-21T11:31:05.709Z,55.49
2022-11-21T11:33:06.993Z,55.65
2022-11-21T11:35:08.360Z,55.96
2022-11-21T11:37:09.689Z,56.32
2022-11-21T11:39:11.505Z,56.39
2022-11-21T11:41:12.793Z,56.63
2022-11-21T11:43:32.949Z,56.89
2022-11-21T11:45:52.868Z,56.74
2022-11-21T11:47:54.878Z,56.52
2022-11-21T11:50:11.449Z,56.26
2022-11-21T11:52:12.821Z,56.21
2022-11-21T11:54:14.120Z,56.09
2022-11-21T11:56:15.473Z,55.82
2022-11-21T11:58:16.804Z,55.52
2022-11-21T12:00:18.134Z,54.95
2022-11-21T12:02:19.495Z,54.60
2022-11-21T12:04:21.108Z,54.29
2022-11-21T12:06:22.529Z,55.08
2022-11-21T12:11:05.033Z,54.29
2022-11-21T12:13:06.322Z,54.53
2022-11-21T12:15:26.237Z,54.12
2022-11-21T12:17:27.516Z,55.09
2022-11-21T12:19:29.123Z,55.27
2022-11-21T12:21:30.618Z,55.01
2022-11-21T12:23:32.204Z,54.20
2022-11-21T12:25:33.992Z,53.86
2022-11-21T12:27:35.280Z,54.09
2022-11-21T12:29:36.609Z,54.41
2022-11-21T12:31:37.945Z,54.04
2022-11-21T12:33:39.229Z,53.19
2022-11-21T12:35:40.509Z,52.96
2022-11-21T12:37:41.876Z,53.08
2022-11-21T12:39:43.201Z,53.58
2022-11-21T12:42:02.993Z,53.74
2022-11-21T12:44:04.291Z,53.90
2022-11-21T12:46:05.588Z,53.99
2022-11-21T12:48:25.424Z,54.52
2022-11-21T12:50:45.422Z,54.46
2022-11-21T12:53:05.473Z,54.75
2022-11-21T12:55:06.769Z,54.82
2022-11-21T12:57:08.084Z,55.13
2022-11-21T12:59:09.352Z,55.32
2022-11-21T13:01:15.468Z,55.55
2022-11-21T13:03:19.969Z,55.20
2022-11-21T13:05:21.245Z,55.59
2022-11-21T13:07:22.600Z,55.20
2022-11-21T13:09:23.904Z,55.09
2022-11-21T13:11:43.933Z,54.91
2022-11-21T13:13:45.208Z,54.33
2022-11-21T13:15:46.496Z,54.18
2022-11-21T13:17:47.775Z,53.83
2022-11-21T13:19:49.717Z,53.63
2022-11-21T13:21:50.997Z,53.34
2022-11-21T13:23:52.292Z,53.03
2022-11-21T13:25:53.674Z,52.96
2022-11-21T13:27:55.017Z,52.88
2022-11-21T13:29:56.322Z,52.67
2022-11-21T13:31:57.604Z,52.55
2022-11-21T13:33:58.924Z,52.60
2022-11-21T13:36:00.204Z,52.23
2022-11-21T13:38:04.434Z,52.38
2022-11-21T13:40:05.761Z,52.48
2022-11-21T13:42:25.625Z,52.30
2022-11-21T13:44:26.921Z,52.55
2022-11-21T13:46:28.213Z,52.42
2022-11-21T13:48:30.622Z,52.32
2022-11-21T13:50:31.913Z,52.52
2022-11-21T13:52:33.237Z,52.57
2022-11-21T13:54:34.561Z,52.77
2022-11-21T13:56:36.530Z,52.80
2022-11-21T13:58:38.098Z,52.85
2022-11-21T14:00:39.432Z,53.14
2022-11-21T14:02:43.012Z,53.19
2022-11-21T14:04:44.356Z,53.25
2022-11-21T14:06:45.769Z,53.59
2022-11-21T14:08:48.076Z,53.78
2022-11-21T14:10:49.532Z,53.96
2022-11-21T14:12:50.920Z,53.80
2022-11-21T14:14:52.351Z,53.94
2022-11-21T14:16:53.669Z,54.11
2022-11-21T14:18:55.012Z,54.36
2022-11-21T14:20:57.398Z,54.32
2022-11-21T14:22:58.810Z,54.50
2022-11-21T14:25:00.108Z,54.54
2022-11-21T14:27:01.497Z,54.64
2022-11-21T14:29:02.762Z,54.68
2022-11-21T14:31:04.070Z,54.57
2022-11-21T14:33:05.378Z,54.58
2022-11-21T14:35:06.702Z,54.29
2022-11-21T14:37:08.007Z,54.12
2022-11-21T14:41:31.295Z,53.45
2022-11-21T14:43:32.632Z,53.28
2022-11-21T14:45:33.917Z,53.12
2022-11-21T14:47:35.209Z,52.81
2022-11-21T14:49:36.544Z,52.59
2022-11-21T14:51:37.830Z,52.53
2022-11-21T14:53:39.162Z,52.45
2022-11-21T14:55:40.450Z,52.42
2022-11-21T14:57:42.341Z,52.27
2022-11-21T14:59:43.720Z,52.26
2022-11-21T15:01:47.766Z,52.01
2022-11-21T15:03:49.305Z,52.06
2022-11-21T15:06:08.269Z,52.15
2022-11-21T15:08:38.727Z,52.05
2022-11-21T15:10:31.743Z,52.29
2022-11-21T15:12:33.328Z,52.26
2022-11-21T15:14:34.669Z,52.12
2022-11-21T15:16:35.937Z,52.35
2022-11-21T15:18:37.739Z,52.54
2022-11-21T15:20:39.093Z,52.84
2022-11-21T15:22:41.197Z,52.65
2022-11-21T15:24:43.086Z,52.90
2022-11-21T15:26:44.562Z,53.23
2022-11-21T15:28:51.920Z,53.29
2022-11-21T15:30:53.205Z,53.14
2022-11-21T15:32:54.512Z,53.53
2022-11-21T15:34:55.819Z,53.68
2022-11-21T15:36:57.137Z,53.71
2022-11-21T15:38:58.545Z,53.77
2022-11-21T15:40:59.896Z,53.88
2022-11-21T15:43:01.802Z,53.95
2022-11-21T15:45:03.137Z,54.13
2022-11-21T15:47:07.516Z,54.27
2022-11-21T15:49:31.458Z,53.97
2022-11-21T15:53:52.354Z,54.23
2022-11-21T15:55:53.636Z,53.92
2022-11-21T15:57:15.068Z,53.96
2022-11-21T15:57:58.211Z,53.53
2022-11-21T15:59:59.588Z,53.30
2022-11-21T16:02:00.912Z,53.07
2022-11-21T16:04:02.236Z,52.79
2022-11-21T16:06:03.535Z,52.56
2022-11-21T16:08:05.272Z,52.33
2022-11-21T16:10:08.943Z,52.02
2022-11-21T16:12:15.961Z,52.16
2022-11-21T16:14:18.525Z,51.54
2022-11-21T16:16:19.958Z,51.58
2022-11-21T16:18:21.242Z,51.37
2022-11-21T16:20:22.542Z,51.62
2022-11-21T16:22:23.916Z,51.58
2022-11-21T16:24:25.220Z,51.50
2022-11-21T16:26:28.804Z,51.65
2022-11-21T16:28:30.458Z,51.79
2022-11-21T16:30:31.748Z,51.86
2022-11-21T16:32:33.076Z,51.86
2022-11-21T16:34:34.417Z,52.10
2022-11-21T16:36:35.749Z,52.00
2022-11-21T16:38:37.078Z,52.19
2022-11-21T16:40:39.452Z,52.43
2022-11-21T16:42:40.850Z,52.74
2022-11-21T16:44:42.201Z,52.92
2022-11-21T16:46:43.592Z,52.91
2022-11-21T16:48:45.023Z,53.07
2022-11-21T16:50:46.380Z,53.05
2022-11-21T16:52:47.740Z,53.00
2022-11-21T16:54:49.020Z,53.37
2022-11-21T16:56:56.041Z,53.50
2022-11-21T16:58:57.369Z,53.48
2022-11-21T17:00:59.215Z,53.68
2022-11-21T17:03:00.613Z,53.83
2022-11-21T17:05:01.997Z,53.94
2022-11-21T17:07:03.373Z,54.31
2022-11-21T17:09:04.720Z,54.24
2022-11-21T17:11:06.010Z,54.26
2022-11-21T17:13:07.286Z,54.72
2022-11-21T17:15:09.379Z,54.24
2022-11-21T17:17:16.402Z,54.04
2022-11-21T17:19:17.687Z,54.22
2022-11-21T17:21:19.028Z,53.76
2022-11-21T17:23:20.299Z,53.43
2022-11-21T17:25:21.564Z,53.22
2022-11-21T17:27:22.855Z,52.73
2022-11-21T17:29:24.227Z,52.63
2022-11-21T17:31:25.552Z,52.33
2022-11-21T17:33:26.841Z,52.16
2022-11-21T17:35:28.144Z,52.00
2022-11-21T17:37:29.427Z,51.77
2022-11-21T17:39:30.842Z,51.75
2022-11-21T17:41:32.312Z,51.41
2022-11-21T17:43:33.729Z,51.31
2022-11-21T17:45:35.009Z,51.42
2022-11-21T17:47:36.306Z,51.59
2022-11-21T17:49:43.558Z,51.57
2022-11-21T17:51:46.103Z,51.63
2022-11-21T17:53:47.458Z,51.51
2022-11-21T17:55:48.754Z,51.63
2022-11-21T17:57:50.102Z,51.74
2022-11-21T17:59:51.424Z,51.94
2022-11-21T18:01:52.838Z,51.87
2022-11-21T18:03:54.265Z,52.02
2022-11-21T18:05:55.544Z,52.41
2022-11-21T18:07:57.268Z,52.58
2022-11-21T18:10:20.380Z,52.57
2022-11-21T18:12:19.897Z,52.75
2022-11-21T18:14:21.896Z,52.92
2022-11-21T18:16:23.184Z,52.98
2022-11-21T18:18:24.465Z,53.09
2022-11-21T18:20:25.781Z,53.16
2022-11-21T18:22:29.574Z,53.18
2022-11-21T18:24:31.216Z,53.37
2022-11-21T18:26:38.786Z,53.42
2022-11-21T18:28:40.111Z,53.60
2022-11-21T18:30:41.402Z,53.73
2022-11-21T18:32:43.249Z,53.63
2022-11-21T18:34:44.565Z,53.83
2022-11-21T18:36:47.683Z,53.64
2022-11-21T18:38:54.641Z,53.83
2022-11-21T18:41:00.111Z,53.87
2022-11-21T18:43:19.641Z,53.83
2022-11-21T18:45:33.016Z,53.04
2022-11-21T18:47:40.244Z,52.93
2022-11-21T18:49:44.536Z,52.75
2022-11-21T18:51:45.967Z,52.50
2022-11-21T18:53:50.233Z,52.17
2022-11-21T18:56:00.235Z,51.79
2022-11-21T18:58:04.198Z,51.88
2022-11-21T19:00:05.530Z,51.45
2022-11-21T19:02:18.805Z,51.60
2022-11-21T19:04:20.209Z,51.61
2022-11-21T19:06:21.487Z,51.44
2022-11-21T19:08:28.516Z,51.19
2022-11-21T19:10:42.967Z,51.49
2022-11-21T19:12:47.973Z,51.60
2022-11-21T19:14:52.019Z,51.44
2022-11-21T19:19:46.604Z,51.59
2022-11-21T19:21:56.922Z,52.04
2022-11-21T19:24:01.049Z,52.16
2022-11-21T19:26:02.369Z,52.25
2022-11-21T19:28:09.757Z,52.41
2022-11-21T19:30:11.108Z,52.18
2022-11-21T19:32:18.554Z,52.74
2022-11-21T19:34:22.596Z,52.80
2022-11-21T19:36:26.821Z,52.67
2022-11-21T19:38:28.106Z,52.86
2022-11-21T19:40:49.408Z,52.95
2022-11-21T19:42:56.565Z,53.26
2022-11-21T19:44:58.281Z,53.48
2022-11-21T19:47:03.076Z,53.43
2022-11-21T19:49:06.990Z,53.46
2022-11-21T19:51:08.341Z,53.60
2022-11-21T19:53:09.625Z,53.60
2022-11-21T19:55:10.909Z,53.69
2022-11-21T19:57:14.047Z,53.68
2022-11-21T19:59:18.328Z,53.77
2022-11-21T20:01:31.629Z,53.19
2022-11-21T20:03:32.993Z,53.25
2022-11-21T20:05:34.278Z,52.97
2022-11-21T20:07:35.717Z,52.56
2022-11-21T20:09:37.206Z,52.32
2022-11-21T20:11:38.815Z,52.35
2022-11-21T20:13:40.546Z,51.87
2022-11-21T20:15:44.694Z,51.64
2022-11-21T20:17:46.025Z,51.56
2022-11-21T20:19:50.614Z,51.71
2022-11-21T20:21:55.383Z,51.37
2022-11-21T20:23:56.684Z,51.49
2022-11-21T20:25:57.978Z,51.31
2022-11-21T20:27:59.250Z,51.35
2022-11-21T20:30:04.414Z,51.10
2022-11-21T20:32:05.741Z,51.30
2022-11-21T20:34:07.080Z,51.57
2022-11-21T20:36:08.403Z,51.54
2022-11-21T20:38:09.729Z,51.57
2022-11-21T20:40:13.810Z,51.60
2022-11-21T20:42:17.869Z,51.91
2022-11-21T20:45:36.037Z,51.81
2022-11-21T20:46:40.840Z,52.12
2022-11-21T20:48:42.168Z,52.32
2022-11-21T20:55:29.005Z,52.67
2022-11-21T20:57:33.229Z,52.65
2022-11-21T20:59:34.509Z,52.93
2022-11-21T21:01:35.810Z,52.94
2022-11-21T21:03:37.148Z,53.11
2022-11-21T21:05:38.502Z,53.22
2022-11-21T21:07:39.846Z,53.23
2022-11-21T21:09:41.193Z,53.38
2022-11-21T21:11:52.028Z,53.30
2022-11-21T21:13:54.454Z,53.32
2022-11-21T21:16:01.989Z,53.31
2022-11-21T21:18:03.340Z,53.57
2022-11-21T21:20:04.636Z,53.26
2022-11-21T21:22:09.048Z,53.08
2022-11-21T21:24:10.888Z,52.63
2022-11-21T21:26:18.234Z,52.47
2022-11-21T21:28:19.521Z,52.09
2022-11-21T21:30:20.999Z,51.82
2022-11-21T21:32:22.284Z,51.90
2022-11-21T21:34:23.667Z,51.55
2022-11-21T21:36:24.960Z,51.42
2022-11-21T21:38:26.244Z,51.14
2022-11-21T21:40:27.595Z,51.05
2022-11-21T21:42:28.912Z,51.33
2022-11-21T21:44:33.483Z,51.16
2022-11-21T21:46:35.164Z,50.95
2022-11-21T21:48:36.472Z,50.91
2022-11-21T21:50:38.496Z,51.08
2022-11-21T21:52:39.828Z,51.32
2022-11-21T21:54:41.158Z,51.11
2022-11-21T21:56:42.456Z,51.36
2022-11-21T21:58:43.732Z,51.39
2022-11-21T22:00:45.014Z,51.54
2022-11-21T22:02:46.358Z,51.61
2022-11-21T22:04:51.816Z,51.73
2022-11-21T22:07:00.784Z,52.07
2022-11-21T22:09:02.189Z,52.03
2022-11-21T22:11:03.518Z,52.18
2022-11-21T22:13:04.850Z,52.24
2022-11-21T22:15:06.137Z,52.15
2022-11-21T22:17:07.462Z,52.58
2022-11-21T22:19:08.816Z,52.79
2022-11-21T22:21:10.085Z,51.17
2022-11-21T22:23:11.375Z,42.44
2022-11-21T22:25:12.692Z,48.77
2022-11-21T22:27:14.001Z,46.58
2022-11-21T22:29:15.281Z,46.95
2022-11-21T22:31:16.620Z,46.29
2022-11-21T22:33:17.901Z,46.75
2022-11-21T22:35:19.233Z,47.19
2022-11-21T22:37:20.721Z,47.38
2022-11-21T22:39:22.021Z,47.35
2022-11-21T22:41:23.309Z,47.91
2022-11-21T22:43:24.619Z,48.03
2022-11-21T22:45:25.899Z,47.87
2022-11-21T22:47:27.185Z,48.06
2022-11-21T22:49:28.464Z,47.85
2022-11-21T22:51:30.034Z,47.86
2022-11-21T22:53:35.625Z,47.84
2022-11-21T22:55:39.936Z,48.16
2022-11-21T22:57:41.226Z,47.76
2022-11-21T22:59:42.709Z,48.34
2022-11-21T23:01:44.055Z,48.36
2022-11-21T23:03:45.344Z,48.60
2022-11-21T23:05:46.660Z,48.81
2022-11-21T23:07:48.019Z,48.56
2022-11-21T23:09:49.405Z,48.56
2022-11-21T23:11:50.685Z,48.66
2022-11-21T23:13:52.177Z,48.95
2022-11-21T23:15:53.456Z,48.53
2022-11-21T23:17:54.840Z,49.20
2022-11-21T23:19:56.160Z,49.05
2022-11-21T23:21:57.469Z,49.31
2022-11-21T23:23:58.762Z,49.76
2022-11-21T23:26:00.111Z,50.00
2022-11-21T23:28:01.457Z,49.90
2022-11-21T23:30:02.763Z,49.86
2022-11-21T23:32:04.113Z,49.99
2022-11-21T23:34:05.542Z,50.00
2022-11-21T23:36:06.836Z,50.49
2022-11-21T23:38:08.157Z,50.66
2022-11-21T23:40:09.447Z,50.77
2022-11-21T23:42:10.729Z,50.61
2022-11-21T23:44:12.006Z,50.65
2022-11-21T23:46:13.444Z,50.51
2022-11-21T23:48:14.740Z,50.45
2022-11-21T23:50:16.064Z,50.65
2022-11-21T23:52:17.386Z,50.62
2022-11-21T23:54:18.694Z,50.18
2022-11-21T23:56:19.960Z,50.96
2022-11-21T23:58:21.349Z,50.96
